Time;durP1;ratioP1;P1;durP2;ratioP2;P2;SDS_P1;SDS_P2;PMS_P1;PMS_P2;Temp;Humidity;BMP_temperature;BMP_pressure;BME280_temperature;BME280_humidity;BME280_pressure;Samples;Min_cycle;Max_cycle;Signal;HPM_P1;HPM_P2
2022/01/02 00:01:11;;;;;;;;;;;;;;;11.82;59.83;100633.66;4423684;32;20005;-95
2022/01/02 00:03:38;;;;;;;;;;;;;;;11.76;59.83;100638.13;4423474;32;20270;-94
2022/01/02 00:06:03;;;;;;;;;;;;;;;11.74;59.83;100624.28;4423730;32;20091;-93
2022/01/02 00:08:30;;;;;;;;;;;;;;;11.59;59.81;100626.34;4423443;32;19998;-94
2022/01/02 00:10:56;;;;;;;;;;;;;;;11.45;59.80;100631.00;4423171;32;19986;-92
2022/01/02 00:13:23;;;;;;;;;;;;;;;11.60;59.81;100629.81;4422722;32;20061;-92
2022/01/02 00:15:49;;;;;;;;;;;;;;;11.49;59.81;100630.03;4422492;32;20124;-92
2022/01/02 00:18:14;;;;;;;;;;;;;;;11.45;59.81;100624.91;4422465;32;19973;-91
2022/01/02 00:20:48;;;;;;;;;;;;;;;11.37;59.80;100619.87;4422111;32;20005;-92
2022/01/02 00:23:20;;;;;;;;;;;;;;;11.46;59.82;100617.06;4423475;32;19993;-91
2022/01/02 00:25:47;;;;;;;;;;;;;;;11.42;59.80;100623.25;4422473;32;20035;-92
2022/01/02 00:28:12;;;;;;;;;;;;;;;11.31;59.80;100628.66;4422256;32;20035;-91
2022/01/02 00:30:37;;;;;;;;;;;;;;;11.40;59.81;100624.16;4422270;32;20369;-92
2022/01/02 00:33:03;;;;;;;;;;;;;;;11.28;59.80;100628.72;4409301;32;20011;-91
2022/01/02 00:35:28;;;;;;;;;;;;;;;11.30;59.79;100624.34;4422445;32;20294;-92
2022/01/02 00:37:53;;;;;;;;;;;;;;;11.24;59.80;100634.91;4422469;32;19989;-92
2022/01/02 00:40:18;;;;;;;;;;;;;;;11.26;59.80;100632.25;4421319;32;27837;-92
2022/01/02 00:42:43;;;;;;;;;;;;;;;11.46;59.81;100631.84;4422280;32;20009;-92
2022/01/02 00:45:12;;;;;;;;;;;;;;;11.20;59.80;100625.44;4421607;32;26848;-91
2022/01/02 00:47:38;;;;;;;;;;;;;;;11.19;59.80;100636.75;4421775;32;19998;-92
2022/01/02 00:50:03;;;;;;;;;;;;;;;11.11;59.79;100635.16;4422344;32;19997;-92
2022/01/02 00:52:28;;;;;;;;;;;;;;;11.23;59.80;100630.59;4422064;32;20050;-92
2022/01/02 00:54:55;;;;;;;;;;;;;;;11.17;59.80;100632.47;4422245;32;20002;-93
2022/01/02 00:57:20;;;;;;;;;;;;;;;11.23;59.80;100632.34;4422572;32;19989;-93
2022/01/02 00:59:54;;;;;;;;;;;;;;;11.26;59.80;100630.50;4422331;32;20472;-93
2022/01/02 01:02:25;;;;;;;;;;;;;;;11.12;59.79;100629.97;4421745;32;20013;-92
2022/01/02 01:04:50;;;;;;;;;;;;;;;11.29;59.79;100624.38;4422697;32;20318;-92
2022/01/02 01:07:15;;;;;;;;;;;;;;;11.25;59.80;100623.59;4422325;32;19978;-91
2022/01/02 01:09:41;;;;;;;;;;;;;;;11.03;59.79;100617.94;4409312;32;20411;-91
2022/01/02 01:12:06;;;;;;;;;;;;;;;11.25;59.80;100626.19;4422315;32;20247;-92
2022/01/02 01:14:32;;;;;;;;;;;;;;;11.10;59.79;100629.09;4422133;32;19997;-92
2022/01/02 01:16:57;;;;;;;;;;;;;;;11.21;59.79;100627.16;4421796;32;20278;-92
2022/01/02 01:19:22;;;;;;;;;;;;;;;11.05;59.79;100618.78;4422423;32;20314;-91
2022/01/02 01:21:48;;;;;;;;;;;;;;;10.96;59.78;100621.56;4422215;32;20010;-92
2022/01/02 01:24:13;;;;;;;;;;;;;;;11.12;59.79;100629.97;4423110;32;20298;-92
2022/01/02 01:26:40;;;;;;;;;;;;;;;11.04;59.79;100619.66;4422876;32;19993;-93
2022/01/02 01:29:05;;;;;;;;;;;;;;;11.01;59.79;100617.13;4423264;32;19985;-92
2022/01/02 01:31:30;;;;;;;;;;;;;;;10.82;59.78;100618.38;4422284;32;20485;-92
2022/01/02 01:33:55;;;;;;;;;;;;;;;10.94;59.78;100614.69;4422538;32;19973;-91
2022/01/02 01:36:21;;;;;;;;;;;;;;;10.73;59.77;100622.00;4422303;32;20033;-93
2022/01/02 01:38:46;;;;;;;;;;;;;;;10.73;59.77;100614.19;4422234;32;20002;-91
2022/01/02 01:41:17;;;;;;;;;;;;;;;11.01;59.79;100617.13;4421766;32;28720;-92
2022/01/02 01:43:54;;;;;;;;;;;;;;;10.90;59.78;100607.81;4422241;32;20049;-91
2022/01/02 01:46:19;;;;;;;;;;;;;;;10.87;59.78;100613.06;4422940;32;20024;-92
2022/01/02 01:48:51;;;;;;;;;;;;;;;10.74;59.77;100615.06;4421924;32;20282;-92
2022/01/02 01:51:16;;;;;;;;;;;;;;;10.59;59.76;100607.53;4421581;32;20011;-90
2022/01/02 01:53:41;;;;;;;;;;;;;;;10.63;59.77;100615.25;4421938;32;19978;-93
2022/01/02 01:56:07;;;;;;;;;;;;;;;10.75;59.77;100604.62;4422277;32;19990;-92
2022/01/02 01:58:32;;;;;;;;;;;;;;;10.79;59.77;100607.16;4421693;32;19989;-93
2022/01/02 02:00:57;;;;;;;;;;;;;;;10.68;59.77;100609.97;4421794;32;20029;-91
2022/01/02 02:03:22;;;;;;;;;;;;;;;10.80;59.77;100611.47;4421516;32;21749;-91
2022/01/02 02:05:48;;;;;;;;;;;;;;;10.92;59.79;100612.12;4421762;32;20247;-92
2022/01/02 02:08:13;;;;;;;;;;;;;;;10.90;59.78;100607.81;4421862;32;20010;-92
2022/01/02 02:10:40;;;;;;;;;;;;;;;10.93;59.79;100602.56;4421924;32;20039;-91
2022/01/02 02:13:05;;;;;;;;;;;;;;;10.99;59.79;100610.22;4421499;32;20326;-91
2022/01/02 02:15:31;;;;;;;;;;;;;;;10.89;59.78;100606.09;4420942;32;20048;-92
2022/01/02 02:17:56;;;;;;;;;;;;;;;10.81;59.78;100606.22;4421761;32;19978;-90
2022/01/02 02:20:25;;;;;;;;;;;;;;;10.68;59.77;100604.78;4420783;32;23636;-90
2022/01/02 02:22:52;;;;;;;;;;;;;;;10.75;59.77;100603.75;4421477;32;20034;-90
2022/01/02 02:25:18;;;;;;;;;;;;;;;10.89;59.78;100595.69;4421177;32;19986;-89
2022/01/02 02:27:47;;;;;;;;;;;;;;;10.91;59.78;100602.59;4420944;32;20028;-89
2022/01/02 02:30:12;;;;;;;;;;;;;;;10.95;59.78;100593.81;4421011;32;20004;-89
2022/01/02 02:32:38;;;;;;;;;;;;;;;10.92;59.79;100598.22;4420724;32;22345;-92
2022/01/02 02:35:03;;;;;;;;;;;;;;;10.93;59.78;100594.75;4421423;32;20044;-91
2022/01/02 02:37:30;;;;;;;;;;;;;;;10.81;59.78;100594.97;4421559;32;20031;-91
2022/01/02 02:39:55;;;;;;;;;;;;;;;10.70;59.76;100587.38;4421692;32;19998;-91
2022/01/02 02:42:32;;;;;;;;;;;;;;;10.81;59.77;100594.97;4421806;32;20012;-93
2022/01/02 02:48:57;;;;;;;;;;;;;;;10.81;59.77;100584.53;4422857;32;19982;-92
2022/01/02 02:50:34;;;;;;;;;;;;;;;10.82;59.77;100579.31;4422038;32;20000;-93
2022/01/02 02:53:00;;;;;;;;;;;;;;;10.82;59.78;100586.25;4421648;32;19993;-95
2022/01/02 02:55:31;;;;;;;;;;;;;;;10.75;59.77;100585.53;4421691;32;20006;-92
2022/01/02 02:57:58;;;;;;;;;;;;;;;10.76;59.77;100585.50;4422512;32;20362;-94
2022/01/02 03:00:23;;;;;;;;;;;;;;;10.77;59.78;100595.03;4422513;32;20667;-93
2022/01/02 03:02:49;;;;;;;;;;;;;;;10.85;59.77;100596.63;4422615;32;19982;-94
2022/01/02 03:05:14;;;;;;;;;;;;;;;10.79;59.77;100591.53;4422726;32;20016;-94
2022/01/02 03:07:39;;;;;;;;;;;;;;;10.77;59.78;100586.34;4422315;32;19982;-94
2022/01/02 03:10:08;;;;;;;;;;;;;;;11.08;59.80;100576.16;4422230;32;20054;-94
2022/01/02 03:12:33;;;;;;;;;;;;;;;10.87;59.78;100571.38;4396431;32;921273;-94
2022/01/02 03:14:58;;;;;;;;;;;;;;;10.83;59.77;100567.13;4422354;32;20002;-94
2022/01/02 03:17:24;;;;;;;;;;;;;;;10.67;59.76;100567.47;4422253;32;20254;-94
2022/01/02 03:19:49;;;;;;;;;;;;;;;10.80;59.77;100565.47;4422189;32;20029;-94
2022/01/02 03:22:14;;;;;;;;;;;;;;;10.78;59.77;100567.22;4421917;32;20013;-94
2022/01/02 03:24:39;;;;;;;;;;;;;;;10.67;59.77;100567.47;4421803;32;19982;-93
2022/01/02 03:27:05;;;;;;;;;;;;;;;10.61;59.76;100556.28;4424381;32;19993;-94
2022/01/02 03:29:30;;;;;;;;;;;;;;;10.80;59.77;100555.03;4424138;32;19989;-94
2022/01/02 03:31:55;;;;;;;;;;;;;;;10.84;59.77;100553.22;4423916;32;19978;-93
2022/01/02 03:34:20;;;;;;;;;;;;;;;10.81;59.78;100551.53;4424900;32;20017;-93
2022/01/02 03:36:46;;;;;;;;;;;;;;;10.85;59.77;100554.94;4423281;32;22617;-92
2022/01/02 03:39:11;;;;;;;;;;;;;;;10.86;59.78;100552.31;4423607;32;20049;-92
2022/01/02 03:41:36;;;;;;;;;;;;;;;10.90;59.78;100550.53;4423640;32;19989;-92
2022/01/02 03:44:01;;;;;;;;;;;;;;;10.89;59.78;100547.06;4423101;32;19985;-92
2022/01/02 03:46:27;;;;;;;;;;;;;;;10.81;59.77;100545.47;4423505;32;22076;-94
2022/01/02 03:48:52;;;;;;;;;;;;;;;10.90;59.78;100534.91;4424972;32;20001;-94
2022/01/02 03:51:17;;;;;;;;;;;;;;;10.98;59.78;100530.38;4424426;32;21816;-95
2022/01/02 03:53:42;;;;;;;;;;;;;;;10.97;59.78;100536.47;4424214;32;19994;-94
2022/01/02 03:56:08;;;;;;;;;;;;;;;10.98;59.78;100541.66;4424363;32;20283;-93
2022/01/02 03:58:33;;;;;;;;;;;;;;;10.83;59.77;100548.91;4424583;32;20008;-94
2022/01/02 04:00:58;;;;;;;;;;;;;;;10.84;59.77;100551.47;4423630;32;19992;-93
2022/01/02 04:03:23;;;;;;;;;;;;;;;10.90;59.78;100548.78;4423538;32;20012;-94
2022/01/02 04:05:49;;;;;;;;;;;;;;;10.87;59.77;100540.12;4423576;32;20326;-93
2022/01/02 04:08:14;;;;;;;;;;;;;;;10.81;59.77;100542.88;4423746;32;20044;-93
2022/01/02 04:10:39;;;;;;;;;;;;;;;10.87;59.78;100543.59;4423818;32;20016;-92
2022/01/02 04:13:06;;;;;;;;;;;;;;;10.97;59.78;100533.88;4423719;32;20008;-93
2022/01/02 04:15:31;;;;;;;;;;;;;;;10.71;59.77;100550.88;4423813;32;20025;-93
2022/01/02 04:17:57;;;;;;;;;;;;;;;10.70;59.76;100548.31;4423899;32;19986;-94
2022/01/02 04:20:22;;;;;;;;;;;;;;;10.84;59.77;100551.47;4424081;32;21253;-94
2022/01/02 04:22:47;;;;;;;;;;;;;;;10.74;59.77;100543.00;4424472;32;20001;-94
2022/01/02 04:25:12;;;;;;;;;;;;;;;10.74;59.77;100542.16;4424198;32;20029;-94
2022/01/02 04:27:38;;;;;;;;;;;;;;;10.70;59.77;100543.97;4424124;32;20008;-93
2022/01/02 04:30:03;;;;;;;;;;;;;;;10.65;59.76;100545.81;4423070;32;19989;-93
2022/01/02 04:32:29;;;;;;;;;;;;;;;10.60;59.76;100552.81;4422998;32;20034;-92
2022/01/02 04:34:54;;;;;;;;;;;;;;;10.62;59.76;100555.41;4422385;32;19986;-92
2022/01/02 04:37:19;;;;;;;;;;;;;;;10.76;59.77;100551.66;4421540;32;20016;-91
2022/01/02 04:39:44;;;;;;;;;;;;;;;10.64;59.77;100549.25;4422347;32;20357;-89
2022/01/02 04:42:10;;;;;;;;;;;;;;;10.62;59.76;100561.47;4409180;32;20035;-90
2022/01/02 04:44:35;;;;;;;;;;;;;;;10.62;59.76;100560.59;4421332;32;28091;-90
2022/01/02 04:47:00;;;;;;;;;;;;;;;10.46;59.75;100557.44;4421224;32;25509;-91
2022/01/02 04:49:26;;;;;;;;;;;;;;;10.46;59.75;100560.06;4422318;32;20322;-91
2022/01/02 04:51:53;;;;;;;;;;;;;;;10.33;59.75;100558.53;4422319;32;20057;-90
2022/01/02 04:54:19;;;;;;;;;;;;;;;10.30;59.74;100556.00;4422316;32;20051;-91
2022/01/02 04:56:44;;;;;;;;;;;;;;;10.23;59.74;100554.41;4421644;32;20006;-89
2022/01/02 04:59:09;;;;;;;;;;;;;;;10.19;59.74;100550.13;4421787;32;20002;-89
2022/01/02 05:01:34;;;;;;;;;;;;;;;10.08;59.73;100552.88;4421576;32;20290;-90
2022/01/02 05:03:59;;;;;;;;;;;;;;;10.23;59.74;100551.81;4421349;32;23417;-90
2022/01/02 05:06:25;;;;;;;;;;;;;;;10.18;59.75;100541.44;4422209;32;20005;-91
2022/01/02 05:08:50;;;;;;;;;;;;;;;10.04;59.74;100543.41;4422207;32;23994;-90
2022/01/02 05:11:16;;;;;;;;;;;;;;;10.09;59.74;100545.06;4422526;32;19992;-96
2022/01/02 05:13:42;;;;;;;;;;;;;;;9.99;59.73;100545.25;4424583;32;20056;-95
2022/01/02 05:16:07;;;;;;;;;;;;;;;9.89;59.73;100546.28;4424335;32;19993;-95
2022/01/02 05:18:32;;;;;;;;;;;;;;;9.85;59.72;100541.13;4424412;32;19998;-94
2022/01/02 05:20:57;;;;;;;;;;;;;;;9.60;59.71;100538.94;4424676;32;20224;-94
2022/01/02 05:23:22;;;;;;;;;;;;;;;9.76;59.71;100536.09;4424245;32;28176;-96
2022/01/02 05:25:48;;;;;;;;;;;;;;;9.75;59.72;100533.50;4424802;32;19981;-95
2022/01/02 05:28:13;;;;;;;;;;;;;;;9.66;59.72;100531.91;4424205;32;19995;-95
2022/01/02 05:30:39;;;;;;;;;;;;;;;9.75;59.72;100542.16;4424271;32;19989;-93
2022/01/02 05:33:04;;;;;;;;;;;;;;;9.75;59.72;100543.91;4422824;32;20015;-92
2022/01/02 05:35:30;;;;;;;;;;;;;;;9.67;59.71;100541.41;4422899;32;20013;-91
2022/01/02 05:37:55;;;;;;;;;;;;;;;9.50;59.71;100546.88;4421926;32;19996;-90
2022/01/02 05:40:20;;;;;;;;;;;;;;;9.46;59.70;100539.13;4421739;32;20005;-94
2022/01/02 05:42:45;;;;;;;;;;;;;;;9.47;59.70;100530.50;4422710;32;27898;-93
2022/01/02 05:45:11;;;;;;;;;;;;;;;9.47;59.70;100533.94;4423407;32;20067;-94
2022/01/02 05:47:37;;;;;;;;;;;;;;;9.29;59.69;100529.00;4423317;32;20272;-94
2022/01/02 05:50:02;;;;;;;;;;;;;;;9.25;59.68;100535.13;4422417;32;20049;-92
2022/01/02 05:52:31;;;;;;;;;;;;;;;9.19;59.68;100530.00;4422378;32;20035;-91
2022/01/02 05:54:56;;;;;;;;;;;;;;;9.15;59.68;100525.72;4422639;32;20358;-92
2022/01/02 05:57:21;;;;;;;;;;;;;;;8.79;59.66;100533.13;4422231;32;20005;-91
2022/01/02 05:59:46;;;;;;;;;;;;;;;9.02;59.67;100529.41;4422324;32;20045;-91
2022/01/02 06:02:11;;;;;;;;;;;;;;;8.88;59.66;100522.63;4422105;32;20386;-92
2022/01/02 06:04:37;;;;;;;;;;;;;;;8.78;59.66;100523.62;4422420;32;19985;-92
2022/01/02 06:07:04;;;;;;;;;;;;;;;8.75;59.67;100518.44;4422998;32;20011;-90
2022/01/02 06:09:29;;;;;;;;;;;;;;;8.82;59.67;100527.91;4421428;32;20006;-89
2022/01/02 06:11:54;;;;;;;;;;;;;;;8.56;59.65;100527.34;4420565;32;20802;-89
2022/01/02 06:14:19;;;;;;;;;;;;;;;8.64;59.66;100519.47;4420571;32;20017;-90
2022/01/02 06:16:45;;;;;;;;;;;;;;;8.70;59.66;100522.00;4420841;32;20004;-90
2022/01/02 06:19:10;;;;;;;;;;;;;;;8.57;59.65;100516.97;4421899;32;19986;-89
2022/01/02 06:21:35;;;;;;;;;;;;;;;8.54;59.65;100518.72;4420470;32;19993;-89
2022/01/02 06:24:00;;;;;;;;;;;;;;;8.69;59.66;100521.13;4420217;32;22074;-90
2022/01/02 06:26:25;;;;;;;;;;;;;;;8.55;59.65;100523.03;4407487;32;21421;-90
2022/01/02 06:28:51;;;;;;;;;;;;;;;8.48;59.64;100517.03;4420351;32;26157;-90
2022/01/02 06:31:16;;;;;;;;;;;;;;;8.54;59.65;100513.53;4420639;32;20009;-90
2022/01/02 06:33:41;;;;;;;;;;;;;;;8.43;59.64;100516.25;4420239;32;20040;-88
2022/01/02 06:36:06;;;;;;;;;;;;;;;8.57;59.65;100521.28;4420242;32;20373;-89
2022/01/02 06:38:31;;;;;;;;;;;;;;;8.32;59.64;100521.53;4421840;32;20275;-90
2022/01/02 06:40:57;;;;;;;;;;;;;;;8.44;59.64;100524.87;4420816;32;19997;-90
2022/01/02 06:43:22;;;;;;;;;;;;;;;8.47;59.65;100535.22;4421137;32;20004;-90
2022/01/02 06:45:47;;;;;;;;;;;;;;;8.30;59.64;100525.88;4420906;32;20299;-90
2022/01/02 06:48:13;;;;;;;;;;;;;;;8.09;59.63;100526.09;4420319;32;22520;-90
2022/01/02 06:50:39;;;;;;;;;;;;;;;8.20;59.63;100524.22;4421165;32;19982;-91
2022/01/02 06:53:04;;;;;;;;;;;;;;;8.21;59.63;100527.69;4420809;32;20010;-91
2022/01/02 06:55:29;;;;;;;;;;;;;;;8.31;59.64;100522.41;4420986;32;19977;-91
2022/01/02 06:57:54;;;;;;;;;;;;;;;8.35;59.63;100532.78;4420646;32;19997;-90
2022/01/02 07:00:20;;;;;;;;;;;;;;;8.22;59.62;100524.22;4420966;32;20001;-91
2022/01/02 07:02:45;;;;;;;;;;;;;;;8.19;59.63;100530.28;4422605;32;19985;-89
2022/01/02 07:05:10;;;;;;;;;;;;;;;8.42;59.64;100537.88;4422247;32;19994;-90
2022/01/02 07:07:42;;;;;;;;;;;;;;;8.49;59.65;100539.50;4409999;32;19985;-91
2022/01/02 07:10:07;;;;;;;;;;;;;;;8.59;59.66;100535.09;4422880;32;19982;-91
2022/01/02 07:12:33;;;;;;;;;;;;;;;8.64;59.66;100538.50;4423096;32;20034;-91
2022/01/02 07:14:59;;;;;;;;;;;;;;;8.54;59.65;100545.53;4423083;32;19973;-91
2022/01/02 07:17:24;;;;;;;;;;;;;;;8.65;59.66;100539.34;4422969;32;20322;-90
2022/01/02 07:19:49;;;;;;;;;;;;;;;8.67;59.66;100533.28;4422807;32;20048;-90
2022/01/02 07:22:15;;;;;;;;;;;;;;;8.72;59.66;100538.41;4423024;32;19994;-91
2022/01/02 07:24:40;;;;;;;;;;;;;;;8.92;59.68;100541.63;4422454;32;25878;-91
2022/01/02 07:27:05;;;;;;;;;;;;;;;9.16;59.68;100549.09;4423141;32;20027;-90
2022/01/02 07:29:30;;;;;;;;;;;;;;;9.14;59.69;100542.19;4422304;32;24092;-89
2022/01/02 07:31:56;;;;;;;;;;;;;;;9.16;59.68;100537.84;4422493;32;20361;-90
2022/01/02 07:34:21;;;;;;;;;;;;;;;9.24;59.68;100530.81;4422284;32;20013;-90
2022/01/02 07:36:46;;;;;;;;;;;;;;;9.23;59.69;100537.75;4422624;32;19970;-90
2022/01/02 07:39:12;;;;;;;;;;;;;;;9.20;59.69;100539.50;4423587;32;22219;-90
2022/01/02 07:41:37;;;;;;;;;;;;;;;9.20;59.69;100526.53;4422516;32;19998;-90
2022/01/02 07:44:03;;;;;;;;;;;;;;;9.20;59.69;100521.31;4422276;32;20021;-91
2022/01/02 07:46:30;;;;;;;;;;;;;;;9.17;59.69;100527.44;4423739;32;20009;-91
2022/01/02 07:48:55;;;;;;;;;;;;;;;9.09;59.68;100528.41;4424921;32;20410;-90
2022/01/02 07:51:20;;;;;;;;;;;;;;;9.08;59.68;100527.56;4424788;32;20005;-90
2022/01/02 07:53:45;;;;;;;;;;;;;;;9.12;59.69;100531.84;4412541;32;19974;-91
2022/01/02 07:56:11;;;;;;;;;;;;;;;9.17;59.68;100530.03;4424446;32;34224;-91
2022/01/02 07:58:37;;;;;;;;;;;;;;;9.02;59.68;100529.41;4425258;32;19985;-91
2022/01/02 08:01:02;;;;;;;;;;;;;;;8.99;59.68;100530.28;4425242;32;20005;-91
2022/01/02 08:03:27;;;;;;;;;;;;;;;9.05;59.68;100527.59;4424654;32;21289;-91
2022/01/02 08:05:52;;;;;;;;;;;;;;;9.07;59.68;100525.84;4424656;32;20020;-92
2022/01/02 08:08:18;;;;;;;;;;;;;;;9.23;59.69;100521.31;4424745;32;20012;-90
2022/01/02 08:10:43;;;;;;;;;;;;;;;9.10;59.68;100512.81;4424058;32;32710;-90
2022/01/02 08:13:08;;;;;;;;;;;;;;;9.18;59.68;100510.09;4423961;32;20834;-90
2022/01/02 08:15:33;;;;;;;;;;;;;;;9.20;59.69;100501.41;4425122;32;19985;-91
2022/01/02 08:17:59;;;;;;;;;;;;;;;9.25;59.69;100497.91;4424482;32;22987;-91
2022/01/02 08:20:24;;;;;;;;;;;;;;;9.38;59.69;100496.81;4425562;32;20001;-92
2022/01/02 08:22:49;;;;;;;;;;;;;;;9.40;59.69;100495.91;4425771;32;20011;-91
2022/01/02 08:25:14;;;;;;;;;;;;;;;9.44;59.70;100494.97;4425514;32;20024;-90
2022/01/02 08:27:40;;;;;;;;;;;;;;;9.69;59.72;100499.78;4424224;32;24541;-91
2022/01/02 08:30:05;;;;;;;;;;;;;;;9.63;59.71;100492.09;4424838;32;20258;-90
2022/01/02 08:32:30;;;;;;;;;;;;;;;9.77;59.72;100492.75;4424827;32;19981;-91
2022/01/02 08:34:56;;;;;;;;;;;;;;;9.69;59.71;100492.84;4424442;32;26202;-90
2022/01/02 08:37:21;;;;;;;;;;;;;;;9.83;59.72;100484.81;4424856;32;20285;-92
2022/01/02 08:39:46;;;;;;;;;;;;;;;9.89;59.72;100489.06;4424368;32;21626;-90
2022/01/02 08:42:11;;;;;;;;;;;;;;;9.90;59.72;100490.78;4424947;32;20009;-89
2022/01/02 08:44:37;;;;;;;;;;;;;;;10.14;59.74;100490.34;4424167;32;20372;-91
2022/01/02 08:47:02;;;;;;;;;;;;;;;10.30;59.74;100481.41;4424296;32;19997;-91
2022/01/02 08:49:27;;;;;;;;;;;;;;;10.44;59.76;100475.94;4424746;32;20027;-91
2022/01/02 08:51:54;;;;;;;;;;;;;;;10.61;59.76;100470.38;4424222;32;20918;-91
2022/01/02 08:54:20;;;;;;;;;;;;;;;10.68;59.76;100465.03;4424909;32;19977;-90
2022/01/02 08:56:45;;;;;;;;;;;;;;;11.03;59.78;100474.66;4424459;32;20437;-90
2022/01/02 08:59:10;;;;;;;;;;;;;;;11.11;59.79;100471.03;4424376;32;20270;-91
2022/01/02 09:01:35;;;;;;;;;;;;;;;11.16;59.80;100464.84;4424268;32;19996;-91
2022/01/02 09:04:01;;;;;;;;;;;;;;;11.16;59.80;100462.22;4424636;32;20016;-90
2022/01/02 09:06:26;;;;;;;;;;;;;;;11.33;59.81;100456.59;4423613;32;26722;-92
2022/01/02 09:08:51;;;;;;;;;;;;;;;11.57;59.81;100456.00;4424539;32;20031;-91
2022/01/02 09:11:16;;;;;;;;;;;;;;;11.61;59.82;100449.00;4424502;32;20278;-91
2022/01/02 09:13:42;;;;;;;;;;;;;;;11.72;59.82;100466.97;4424442;32;20023;-90
2022/01/02 09:16:07;;;;;;;;;;;;;;;11.94;59.83;100460.34;4424384;32;20009;-91
2022/01/02 09:18:33;;;;;;;;;;;;;;;12.04;59.84;100453.09;4424401;32;20025;-90
2022/01/02 09:20:58;;;;;;;;;;;;;;;11.95;59.83;100452.47;4424641;32;19969;-91
2022/01/02 09:23:24;;;;;;;;;;;;;;;12.09;59.85;100443.44;4411150;32;19996;-91
2022/01/02 09:25:49;;;;;;;;;;;;;;;12.29;59.86;100446.31;4424061;32;22871;-91
2022/01/02 09:28:14;;;;;;;;;;;;;;;12.21;59.85;100441.31;4424512;32;20258;-91
2022/01/02 09:30:39;;;;;;;;;;;;;;;12.32;59.86;100443.66;4424186;32;19978;-90
2022/01/02 09:33:08;;;;;;;;;;;;;;;12.47;59.86;100442.34;4424336;32;20261;-92
2022/01/02 09:35:34;;;;;;;;;;;;;;;12.58;59.88;100453.34;4424956;32;20040;-92
2022/01/02 09:37:59;;;;;;;;;;;;;;;12.82;59.89;100446.53;4424821;32;19997;-91
2022/01/02 09:40:24;;;;;;;;;;;;;;;13.04;59.89;100433.69;4424263;32;19989;-89
2022/01/02 09:42:50;;;;;;;;;;;;;;;13.19;59.90;100427.97;4424424;32;19997;-92
2022/01/02 09:45:15;;;;;;;;;;;;;;;13.14;59.90;100414.19;4424458;32;20294;-91
2022/01/02 09:47:40;;;;;;;;;;;;;;;13.35;59.92;100410.06;4423959;32;20029;-91
2022/01/02 09:50:06;;;;;;;;;;;;;;;13.30;59.91;100401.50;4423987;32;19969;-90
2022/01/02 09:52:31;;;;;;;;;;;;;;;13.33;59.91;100394.41;4423986;32;19997;-91
2022/01/02 09:54:57;;;;;;;;;;;;;;;13.50;59.93;100388.63;4423684;32;22360;-91
2022/01/02 09:57:22;;;;;;;;;;;;;;;13.64;59.92;100375.91;4423921;32;20027;-89
2022/01/02 09:59:47;;;;;;;;;;;;;;;13.80;59.94;100365.78;4423866;32;20008;-90
2022/01/02 10:02:12;;;;;;;;;;;;;;;13.91;59.95;100354.91;4423780;32;19982;-91
2022/01/02 10:04:38;;;;;;;;;;;;;;;14.11;59.95;100349.81;4423815;32;20759;-91
2022/01/02 10:07:25;;;;;;;;;;;;;;;14.31;59.96;100359.56;4423993;32;20286;-92
2022/01/02 10:09:50;;;;;;;;;;;;;;;14.45;59.97;100354.69;4424223;32;19969;-91
2022/01/02 10:12:22;;;;;;;;;;;;;;;14.67;59.98;100350.34;4423627;32;23092;-91
2022/01/02 10:15:06;;;;;;;;;;;;;;;14.70;59.98;100354.59;4410789;32;20052;-89
2022/01/02 10:17:35;;;;;;;;;;;;;;;14.60;59.98;100351.47;4423538;32;19993;-90
2022/01/02 10:20:13;;;;;;;;;;;;;;;14.76;59.98;100354.34;4423435;32;19981;-90
2022/01/02 10:22:42;;;;;;;;;;;;;;;14.93;59.99;100351.91;4423894;32;19992;-91
2022/01/02 10:25:08;;;;;;;;;;;;;;;15.09;60.00;100346.88;4423440;32;20633;-90
2022/01/02 10:27:33;;;;;;;;;;;;;;;15.09;60.00;100343.41;4423087;32;20160;-91
2022/01/02 10:29:58;;;;;;;;;;;;;;;15.32;60.03;100330.19;4423113;32;27492;-90
2022/01/02 10:32:27;;;;;;;;;;;;;;;15.50;60.03;100316.28;4423571;32;20333;-91
2022/01/02 10:34:52;;;;;;;;;;;;;;;15.47;60.03;100316.44;4437923;32;20237;-91
2022/01/02 10:37:24;;;;;;;;;;;;;;;15.45;60.02;100302.53;4425722;32;20007;-92
2022/01/02 10:39:49;;;;;;;;;;;;;;;15.48;60.03;100294.53;4425797;32;19977;-92
2022/01/02 10:42:15;;;;;;;;;;;;;;;15.54;60.03;100296.88;4425738;32;20054;-91
2022/01/02 10:44:41;;;;;;;;;;;;;;;15.53;60.03;100294.31;4425787;32;20258;-91
2022/01/02 10:47:07;;;;;;;;;;;;;;;15.56;60.04;100299.44;4425915;32;19985;-92
2022/01/02 10:49:48;;;;;;;;;;;;;;;15.77;60.04;100295.03;4425625;32;20027;-92
2022/01/02 10:52:20;;;;;;;;;;;;;;;15.80;60.04;100287.87;4425482;32;19985;-90
2022/01/02 10:54:45;;;;;;;;;;;;;;;15.84;60.04;100286.81;4425402;32;20013;-90
2022/01/02 10:57:11;;;;;;;;;;;;;;;15.92;60.04;100275.97;4425429;32;20342;-92
2022/01/02 10:59:36;;;;;;;;;;;;;;;15.87;60.05;100270.09;4425822;32;20226;-93
2022/01/02 11:02:01;;;;;;;;;;;;;;;15.95;60.06;100266.19;4425747;32;19992;-92
2022/01/02 11:04:30;;;;;;;;;;;;;;;15.90;60.05;100272.59;4425554;32;20028;-92
2022/01/02 11:06:55;;;;;;;;;;;;;;;16.04;60.06;100274.56;4426072;32;20001;-92
2022/01/02 11:09:21;;;;;;;;;;;;;;;16.06;60.06;100270.09;4425233;32;19981;-90
2022/01/02 11:11:46;;;;;;;;;;;;;;;16.03;60.05;100262.34;4425466;32;19985;-90
2022/01/02 11:14:14;;;;;;;;;;;;;;;15.97;60.05;100263.50;4438217;32;20029;-91
2022/01/02 11:16:39;;;;;;;;;;;;;;;16.10;60.06;100250.66;4425031;32;20012;-91
2022/01/02 11:19:04;;;;;;;;;;;;;;;16.11;60.07;100240.09;4425484;32;19977;-91
2022/01/02 11:21:30;;;;;;;;;;;;;;;16.02;60.07;100256.25;4439565;32;20000;-90
2022/01/02 11:24:06;;;;;;;;;;;;;;;16.06;60.06;100247.28;4412340;32;19990;-92
2022/01/02 11:26:54;;;;;;;;;;;;;;;16.20;60.07;100231.75;4425372;32;19957;-92
2022/01/02 11:29:24;;;;;;;;;;;;;;;16.23;60.06;100228.97;4439275;32;19988;-91
2022/01/02 11:31:50;;;;;;;;;;;;;;;16.12;60.06;100222.56;4425181;32;20648;-91
2022/01/02 11:34:22;;;;;;;;;;;;;;;16.00;60.05;100220.47;4424914;32;20054;-91
2022/01/02 11:36:48;;;;;;;;;;;;;;;15.89;60.05;100221.00;4438836;32;20007;-91
2022/01/02 11:39:13;;;;;;;;;;;;;;;15.84;60.04;100215.09;4410626;32;25026;-91
2022/01/02 11:41:38;;;;;;;;;;;;;;;15.86;60.04;100203.63;4424422;32;20010;-90
2022/01/02 11:44:05;;;;;;;;;;;;;;;15.63;60.04;100207.28;4425018;32;20317;-91
2022/01/02 11:46:31;;;;;;;;;;;;;;;15.68;60.04;100199.22;4425122;32;20309;-91
2022/01/02 11:49:05;;;;;;;;;;;;;;;15.69;60.04;100197.44;4425189;32;19986;-92
2022/01/02 11:51:49;;;;;;;;;;;;;;;15.81;60.05;100199.47;4425082;32;19973;-91
2022/01/02 11:54:40;;;;;;;;;;;;;;;15.76;60.04;100196.22;4438959;32;20006;-93
2022/01/02 11:57:11;;;;;;;;;;;;;;;15.79;60.05;100181.19;4425244;32;20046;-91
2022/01/02 11:59:40;;;;;;;;;;;;;;;15.89;60.05;100176.37;4439190;32;19973;-92
2022/01/02 12:02:14;;;;;;;;;;;;;;;15.86;60.04;100179.13;4425120;32;20089;-92
2022/01/02 12:04:58;;;;;;;;;;;;;;;15.93;60.06;100178.78;4425097;32;20081;-91
2022/01/02 12:07:32;;;;;;;;;;;;;;;15.87;60.05;100178.22;4425042;32;20057;-91
2022/01/02 12:10:20;;;;;;;;;;;;;;;15.92;60.05;100168.34;4439076;32;19991;-91
2022/01/02 12:12:57;;;;;;;;;;;;;;;15.89;60.06;100165.87;4439093;32;19977;-92
2022/01/02 12:15:32;;;;;;;;;;;;;;;15.92;60.05;100157.84;4439029;32;20042;-92
2022/01/02 12:18:03;;;;;;;;;;;;;;;15.86;60.04;100155.50;4425043;32;20015;-91
2022/01/02 12:20:29;;;;;;;;;;;;;;;16.00;60.05;100146.97;4424949;32;19978;-91
2022/01/02 12:22:54;;;;;;;;;;;;;;;15.89;60.05;100143.09;4424577;32;20290;-92
2022/01/02 12:25:20;;;;;;;;;;;;;;;15.90;60.05;100141.31;4424582;32;20216;-92
2022/01/02 12:27:49;;;;;;;;;;;;;;;15.75;60.04;100131.53;4425076;32;19997;-92
2022/01/02 12:30:15;;;;;;;;;;;;;;;15.98;60.05;100130.44;4425130;32;19991;-91
2022/01/02 12:32:40;;;;;;;;;;;;;;;15.87;60.05;100126.56;4424978;32;19974;-91
2022/01/02 12:35:06;;;;;;;;;;;;;;;15.84;60.04;100125.81;4425406;32;20018;-91
2022/01/02 12:37:31;;;;;;;;;;;;;;;15.65;60.04;100118.00;4425062;32;20002;-91
2022/01/02 12:39:56;;;;;;;;;;;;;;;15.74;60.05;100119.31;4424828;32;20038;-90